Time;durP1;ratioP1;P1;durP2;ratioP2;P2;SDS_P1;SDS_P2;PMS_P1;PMS_P2;Temp;Humidity;BMP_temperature;BMP_pressure;BME280_temperature;BME280_humidity;BME280_pressure;Samples;Min_cycle;Max_cycle;Signal;HPM_P1;HPM_P2
2021/11/30 00:00:00;;;;;;;20.52;13.77;;;2.90;98.30;;;;;;5152147;23;20252;-85
2021/11/30 00:02:04;;;;;;;20.88;16.27;;;2.90;98.30;;;;;;5151843;23;20534;-85
2021/11/30 00:04:08;;;;;;;20.70;16.00;;;2.90;98.30;;;;;;5151177;23;20270;-85
2021/11/30 00:06:12;;;;;;;19.40;15.93;;;2.80;98.30;;;;;;5151499;23;20178;-85
2021/11/30 00:08:18;;;;;;;19.20;15.93;;;2.80;98.30;;;;;;5151471;23;20257;-85
2021/11/30 00:12:42;;;;;;;20.08;16.00;;;2.80;98.30;;;;;;5151638;23;20269;-84
2021/11/30 00:14:47;;;;;;;20.80;16.48;;;2.80;98.30;;;;;;5152052;23;20579;-85
2021/11/30 00:16:50;;;;;;;24.15;17.45;;;2.80;98.30;;;;;;5152036;23;20710;-85
2021/11/30 00:18:54;;;;;;;21.02;16.45;;;2.80;98.30;;;;;;5152106;23;20498;-84
2021/11/30 00:20:57;;;;;;;24.27;17.70;;;2.80;98.30;;;;;;5153326;23;20282;-84
2021/11/30 00:23:00;;;;;;;21.40;16.50;;;2.90;98.30;;;;;;5153985;23;20273;-85
2021/11/30 00:25:05;;;;;;;26.20;18.50;;;2.90;98.30;;;;;;5164062;23;20309;-85
2021/11/30 00:27:08;;;;;;;23.08;18.02;;;2.90;98.30;;;;;;5152514;23;20166;-85
2021/11/30 00:29:11;;;;;;;24.38;18.20;;;2.90;98.30;;;;;;5143291;23;20179;-84
2021/11/30 00:31:14;;;;;;;21.75;18.25;;;2.90;98.30;;;;;;5151258;23;20531;-85
2021/11/30 00:33:18;;;;;;;20.55;17.50;;;2.80;98.30;;;;;;5151238;23;20174;-84
2021/11/30 00:35:22;;;;;;;25.65;17.95;;;2.90;98.30;;;;;;5152070;23;20704;-85
2021/11/30 00:37:25;;;;;;;26.52;18.52;;;2.90;98.30;;;;;;5151256;23;20501;-84
2021/11/30 00:39:28;;;;;;;24.60;19.00;;;2.90;98.30;;;;;;5151463;23;20174;-86
2021/11/30 00:41:34;;;;;;;22.33;18.88;;;2.90;98.30;;;;;;5151427;23;20280;-85
2021/11/30 00:43:38;;;;;;;24.02;18.25;;;2.90;98.30;;;;;;5150803;23;20182;-87
2021/11/30 00:45:49;;;;;;;20.85;17.48;;;2.90;98.30;;;;;;5151561;23;20209;-86
2021/11/30 00:47:55;;;;;;;24.00;17.40;;;2.90;98.30;;;;;;5151436;23;20190;-86
2021/11/30 00:49:59;;;;;;;24.33;18.80;;;2.90;98.30;;;;;;5151538;23;20213;-86
2021/11/30 00:52:03;;;;;;;25.55;20.45;;;2.90;98.30;;;;;;5151140;23;20214;-85
2021/11/30 00:54:08;;;;;;;23.80;18.38;;;2.90;98.30;;;;;;5150897;23;20261;-84
2021/11/30 00:56:11;;;;;;;23.13;17.10;;;2.90;98.30;;;;;;5151162;23;20198;-86
2021/11/30 00:58:16;;;;;;;22.17;18.42;;;2.90;98.30;;;;;;5151148;23;20230;-86
2021/11/30 01:00:20;;;;;;;26.40;19.52;;;2.90;98.30;;;;;;5151521;23;20182;-85
2021/11/30 01:02:23;;;;;;;27.10;19.00;;;2.90;98.30;;;;;;5151210;23;20202;-84
2021/11/30 01:04:28;;;;;;;25.05;19.58;;;2.90;98.30;;;;;;5150796;23;20189;-85
2021/11/30 01:06:31;;;;;;;25.00;18.25;;;2.90;98.30;;;;;;5151460;23;20528;-84
2021/11/30 01:08:35;;;;;;;26.48;19.73;;;2.90;98.30;;;;;;5151185;23;20190;-84
2021/11/30 01:10:38;;;;;;;23.98;17.92;;;2.90;98.30;;;;;;5150828;23;20282;-85
2021/11/30 01:12:41;;;;;;;27.67;19.55;;;2.90;98.30;;;;;;5151144;23;20317;-83
2021/11/30 01:14:46;;;;;;;26.88;18.88;;;2.90;98.30;;;;;;5150624;23;20196;-85
2021/11/30 01:16:49;;;;;;;27.85;20.25;;;3.00;98.30;;;;;;5151129;23;20181;-84
2021/11/30 01:18:52;;;;;;;23.67;19.25;;;3.00;98.30;;;;;;5151054;23;20201;-84
2021/11/30 01:20:55;;;;;;;27.25;20.40;;;3.00;98.30;;;;;;5151113;23;20233;-83
2021/11/30 01:22:58;;;;;;;26.48;21.27;;;3.00;98.30;;;;;;5150034;23;20198;-85
2021/11/30 01:25:01;;;;;;;28.83;21.85;;;3.00;98.30;;;;;;5150869;23;20638;-84
2021/11/30 01:27:04;;;;;;;26.55;21.25;;;3.00;98.30;;;;;;5150255;23;20523;-84
2021/11/30 01:29:08;;;;;;;25.20;18.42;;;3.10;98.30;;;;;;5150807;23;20200;-84
2021/11/30 01:31:13;;;;;;;30.83;24.92;;;3.10;98.30;;;;;;5150892;23;20195;-84
2021/11/30 01:33:16;;;;;;;28.23;21.50;;;3.10;98.30;;;;;;5150310;23;20257;-86
2021/11/30 01:35:20;;;;;;;29.15;21.20;;;3.20;98.30;;;;;;5151069;23;20189;-86
2021/11/30 01:37:23;;;;;;;26.63;20.60;;;3.20;98.30;;;;;;5151499;23;20182;-86
2021/11/30 01:39:26;;;;;;;26.73;21.30;;;3.20;98.30;;;;;;5151240;23;20180;-86
2021/11/30 01:41:32;;;;;;;26.00;21.88;;;3.20;98.30;;;;;;5151003;23;20206;-85
2021/11/30 01:43:40;;;;;;;31.08;23.70;;;3.20;98.30;;;;;;5150078;23;20527;-85
2021/11/30 01:45:56;;;;;;;25.83;20.80;;;3.20;98.30;;;;;;5151341;23;20225;-85
2021/11/30 01:50:28;;;;;;;26.45;20.83;;;3.40;98.30;;;;;;5149153;23;20217;-84
2021/11/30 01:52:31;;;;;;;30.95;22.27;;;3.40;98.30;;;;;;5150816;23;20295;-85
2021/11/30 01:54:38;;;;;;;27.02;20.60;;;3.40;98.30;;;;;;5150868;23;20192;-84
2021/11/30 01:56:42;;;;;;;28.73;22.00;;;3.50;98.30;;;;;;5151079;23;20178;-84
2021/11/30 01:58:46;;;;;;;24.60;21.58;;;3.50;98.30;;;;;;5150872;23;20178;-86
2021/11/30 02:00:49;;;;;;;23.92;18.15;;;3.50;98.30;;;;;;5151047;23;20199;-85
2021/11/30 02:02:53;;;;;;;25.27;18.90;;;3.50;98.30;;;;;;5150934;23;20178;-85
2021/11/30 02:04:57;;;;;;;24.25;18.88;;;3.50;98.30;;;;;;5150462;23;20586;-85
2021/11/30 02:07:00;;;;;;;26.77;20.80;;;3.50;98.30;;;;;;5151708;23;20202;-86
2021/11/30 02:09:04;;;;;;;23.73;17.70;;;3.40;98.30;;;;;;5150388;23;20205;-84
2021/11/30 02:11:08;;;;;;;23.90;17.63;;;3.40;98.30;;;;;;5150682;23;20206;-84
2021/11/30 02:13:11;;;;;;;20.27;16.85;;;3.40;98.30;;;;;;5150689;23;20186;-85
2021/11/30 02:15:15;;;;;;;20.00;16.52;;;3.40;98.30;;;;;;5150718;23;20175;-85
2021/11/30 02:17:19;;;;;;;22.10;18.40;;;3.30;98.30;;;;;;5150639;23;20240;-85
2021/11/30 02:19:22;;;;;;;22.60;18.88;;;3.30;98.30;;;;;;5150800;23;20181;-86
2021/11/30 02:21:28;;;;;;;23.50;20.10;;;3.30;98.30;;;;;;5151039;23;20205;-85
2021/11/30 02:23:37;;;;;;;20.90;17.73;;;3.30;98.30;;;;;;5150383;23;20190;-86
2021/11/30 02:25:40;;;;;;;23.92;20.42;;;3.30;98.30;;;;;;5150754;23;20229;-85
2021/11/30 02:27:43;;;;;;;23.77;18.77;;;3.30;98.30;;;;;;5149899;23;20285;-85
2021/11/30 02:29:46;;;;;;;21.65;18.85;;;3.40;98.30;;;;;;5150435;23;20249;-85
2021/11/30 02:31:50;;;;;;;20.88;18.42;;;3.40;98.30;;;;;;5150385;23;20316;-85
2021/11/30 02:33:53;;;;;;;23.98;19.23;;;3.30;98.30;;;;;;5150292;23;20506;-85
2021/11/30 02:35:56;;;;;;;21.25;16.95;;;3.40;98.30;;;;;;5150404;23;20180;-85
2021/11/30 02:38:07;;;;;;;23.73;19.00;;;3.40;98.30;;;;;;5150679;23;20695;-86
2021/11/30 02:40:11;;;;;;;21.45;18.00;;;3.40;98.30;;;;;;5150980;23;20249;-85
2021/11/30 02:42:14;;;;;;;21.30;18.10;;;3.40;98.30;;;;;;5151189;23;20631;-85
2021/11/30 02:44:20;;;;;;;28.63;18.13;;;3.40;98.30;;;;;;5150123;23;20213;-85
2021/11/30 02:46:35;;;;;;;24.52;18.05;;;3.40;98.30;;;;;;5150817;23;20660;-85
2021/11/30 02:48:39;;;;;;;20.02;16.73;;;3.40;98.30;;;;;;5151053;23;20249;-85
2021/11/30 02:50:43;;;;;;;20.25;17.45;;;3.40;98.30;;;;;;5151051;23;20587;-86
2021/11/30 02:52:46;;;;;;;19.58;17.25;;;3.40;98.30;;;;;;5150729;23;20175;-85
2021/11/30 02:54:53;;;;;;;20.40;17.20;;;3.40;98.30;;;;;;5150634;23;20174;-85
2021/11/30 02:57:00;;;;;;;17.80;15.88;;;3.40;98.30;;;;;;5150709;23;20173;-86
2021/11/30 02:59:03;;;;;;;19.45;17.00;;;3.40;98.30;;;;;;5151066;23;20158;-86
2021/11/30 03:01:08;;;;;;;22.13;16.35;;;3.40;98.30;;;;;;5150662;23;20226;-86
2021/11/30 03:03:11;;;;;;;20.42;17.00;;;3.40;98.30;;;;;;5150153;23;20214;-85
2021/11/30 03:05:14;;;;;;;17.17;15.48;;;3.40;98.30;;;;;;5150801;23;20198;-86
2021/11/30 03:07:20;;;;;;;20.35;17.02;;;3.50;98.30;;;;;;5150465;23;20217;-85
2021/11/30 03:09:24;;;;;;;17.85;15.73;;;3.50;98.30;;;;;;5150940;23;20194;-84
2021/11/30 03:11:29;;;;;;;18.02;16.30;;;3.50;98.30;;;;;;5150140;23;20202;-85
2021/11/30 03:13:32;;;;;;;14.77;13.27;;;3.50;98.30;;;;;;5149995;23;20636;-86
2021/11/30 03:15:35;;;;;;;18.33;14.85;;;3.50;98.30;;;;;;5150301;23;20417;-85
2021/11/30 03:17:38;;;;;;;16.63;14.75;;;3.50;98.30;;;;;;5152148;23;20178;-86
2021/11/30 03:19:41;;;;;;;17.48;14.70;;;3.50;98.30;;;;;;5151905;23;20257;-85
2021/11/30 03:21:46;;;;;;;15.85;13.85;;;3.50;98.30;;;;;;5152476;23;20647;-85
2021/11/30 03:23:49;;;;;;;14.80;13.32;;;3.50;98.30;;;;;;5151374;23;20208;-86
2021/11/30 03:25:52;;;;;;;13.10;11.80;;;3.40;98.30;;;;;;5151429;23;20180;-84
2021/11/30 03:27:57;;;;;;;13.55;12.15;;;3.40;98.30;;;;;;5152140;23;20185;-85
2021/11/30 03:29:59;;;;;;;14.15;12.65;;;3.40;98.30;;;;;;5152391;23;20175;-85
2021/11/30 03:32:07;;;;;;;13.50;12.20;;;3.40;98.30;;;;;;5151825;23;20237;-85
2021/11/30 03:34:12;;;;;;;14.13;12.63;;;3.40;98.30;;;;;;5151703;23;20200;-86
2021/11/30 03:36:15;;;;;;;15.30;13.80;;;3.40;98.30;;;;;;5151683;23;20205;-86
2021/11/30 03:38:18;;;;;;;15.07;13.48;;;3.40;98.30;;;;;;5152265;23;20232;-86
2021/11/30 03:40:21;;;;;;;20.00;14.32;;;3.30;98.30;;;;;;5151703;23;20181;-85
2021/11/30 03:42:26;;;;;;;17.05;13.55;;;3.30;98.30;;;;;;5152902;23;20206;-85
2021/11/30 03:44:31;;;;;;;16.80;15.07;;;3.30;98.30;;;;;;5152210;23;20194;-85
2021/11/30 03:46:35;;;;;;;17.58;15.82;;;3.30;98.30;;;;;;5152014;23;20179;-84
2021/11/30 03:48:41;;;;;;;17.35;15.55;;;3.30;98.30;;;;;;5151411;23;20266;-85
2021/11/30 03:50:44;;;;;;;17.55;15.85;;;3.30;98.30;;;;;;5152168;23;20205;-85
2021/11/30 03:52:47;;;;;;;17.15;15.48;;;3.30;98.30;;;;;;5152661;23;20672;-86
2021/11/30 03:54:50;;;;;;;17.38;15.68;;;3.30;98.30;;;;;;5152313;23;20201;-86
2021/11/30 03:56:54;;;;;;;16.83;15.10;;;3.30;98.30;;;;;;5152638;23;20197;-86
2021/11/30 03:58:58;;;;;;;18.48;16.50;;;3.30;98.30;;;;;;5152697;23;20648;-86
2021/11/30 04:01:02;;;;;;;17.60;15.80;;;3.20;98.30;;;;;;5152466;23;20274;-86
2021/11/30 04:03:06;;;;;;;17.48;15.77;;;3.30;98.30;;;;;;5151928;23;20183;-85
2021/11/30 04:05:10;;;;;;;16.23;14.65;;;3.30;98.30;;;;;;5152383;23;20190;-85
2021/11/30 04:07:14;;;;;;;14.93;13.52;;;3.30;98.30;;;;;;5151937;23;20184;-87
2021/11/30 04:09:18;;;;;;;17.77;15.95;;;3.30;98.30;;;;;;5152630;23;20214;-87
2021/11/30 04:11:21;;;;;;;17.92;16.08;;;3.20;98.30;;;;;;5152413;23;20550;-87
2021/11/30 04:13:25;;;;;;;15.88;14.27;;;3.20;98.30;;;;;;5152185;23;20608;-87
2021/11/30 04:15:28;;;;;;;17.33;15.52;;;3.20;98.30;;;;;;5150597;23;20767;-86
2021/11/30 04:17:32;;;;;;;17.48;15.68;;;3.20;98.30;;;;;;5151934;23;20174;-86
2021/11/30 04:19:35;;;;;;;15.00;13.23;;;3.30;98.30;;;;;;5152502;23;20201;-85
2021/11/30 04:21:38;;;;;;;15.15;13.23;;;3.30;98.30;;;;;;5152113;23;20277;-86
2021/11/30 04:23:42;;;;;;;18.42;15.60;;;3.20;98.30;;;;;;5152288;23;20185;-85
2021/11/30 04:25:45;;;;;;;16.55;14.18;;;3.30;98.30;;;;;;5151741;23;20198;-86
2021/11/30 04:27:48;;;;;;;14.38;12.98;;;3.20;98.30;;;;;;5151646;23;20297;-86
2021/11/30 04:29:51;;;;;;;14.48;12.90;;;3.20;98.30;;;;;;5152496;23;20209;-86
2021/11/30 04:31:56;;;;;;;14.00;12.68;;;3.20;98.30;;;;;;5151995;23;20274;-86
2021/11/30 04:34:03;;;;;;;16.02;14.43;;;3.20;98.30;;;;;;5151625;23;20675;-85
2021/11/30 04:36:07;;;;;;;15.63;14.05;;;3.30;98.30;;;;;;5151774;23;20166;-85
2021/11/30 04:38:10;;;;;;;14.45;13.05;;;3.30;98.30;;;;;;5152032;23;20258;-86
2021/11/30 04:40:14;;;;;;;15.65;14.02;;;3.30;98.30;;;;;;5152147;23;20174;-85
2021/11/30 04:42:17;;;;;;;16.10;14.40;;;3.30;98.30;;;;;;5151988;23;20628;-85
2021/11/30 04:44:24;;;;;;;17.70;15.80;;;3.30;98.30;;;;;;5152161;23;20184;-85
2021/11/30 04:46:28;;;;;;;16.85;14.50;;;3.30;98.30;;;;;;5151767;23;20640;-86
2021/11/30 04:48:32;;;;;;;14.85;13.35;;;3.30;98.30;;;;;;5151914;23;20175;-86
2021/11/30 04:50:42;;;;;;;16.10;14.48;;;3.40;98.30;;;;;;5152343;23;20277;-85
2021/11/30 04:52:46;;;;;;;15.20;13.70;;;3.40;98.30;;;;;;5151834;23;20266;-84
2021/11/30 04:54:49;;;;;;;16.17;14.48;;;3.40;98.30;;;;;;5152140;23;20178;-84
2021/11/30 04:56:53;;;;;;;14.80;12.77;;;3.40;98.30;;;;;;5151500;23;20181;-85
2021/11/30 04:58:56;;;;;;;16.40;14.70;;;3.40;98.30;;;;;;5151808;23;20709;-85
2021/11/30 05:01:00;;;;;;;16.25;14.48;;;3.40;98.30;;;;;;5151880;23;20194;-84
2021/11/30 05:03:06;;;;;;;15.10;13.40;;;3.50;98.30;;;;;;5151755;23;20633;-84
2021/11/30 05:05:12;;;;;;;17.73;15.93;;;3.50;98.30;;;;;;5151452;23;20530;-83
2021/11/30 05:07:18;;;;;;;16.60;14.95;;;3.50;98.30;;;;;;5151356;23;20185;-83
2021/11/30 05:09:21;;;;;;;17.63;15.50;;;3.60;98.30;;;;;;5151844;23;20165;-85
2021/11/30 05:11:24;;;;;;;19.77;16.02;;;3.60;98.30;;;;;;5151560;23;20206;-85
2021/11/30 05:13:27;;;;;;;18.52;16.65;;;3.60;98.30;;;;;;5150954;23;20175;-84
2021/11/30 05:15:30;;;;;;;16.63;14.93;;;3.60;98.30;;;;;;5151465;23;20198;-84
2021/11/30 05:17:33;;;;;;;18.25;16.35;;;3.60;98.30;;;;;;5151834;23;20547;-84
2021/11/30 05:19:36;;;;;;;18.00;15.32;;;3.70;98.30;;;;;;5152073;23;20716;-84
2021/11/30 05:21:40;;;;;;;19.35;16.67;;;3.70;98.30;;;;;;5151488;23;20194;-86
2021/11/30 05:23:44;;;;;;;17.33;15.50;;;3.70;98.30;;;;;;5151605;23;20181;-86
2021/11/30 05:25:47;;;;;;;17.87;14.10;;;3.80;98.30;;;;;;5151804;23;20596;-85
2021/11/30 05:27:51;;;;;;;17.90;16.10;;;3.80;98.30;;;;;;5151151;23;20433;-86
2021/11/30 05:29:54;;;;;;;17.93;16.07;;;3.80;98.30;;;;;;5151932;23;20679;-86
2021/11/30 05:31:57;;;;;;;17.50;15.80;;;3.90;98.30;;;;;;5152080;23;20827;-85
2021/11/30 05:34:00;;;;;;;17.95;16.05;;;3.90;98.30;;;;;;5151742;23;20182;-85
2021/11/30 05:36:05;;;;;;;17.08;14.07;;;3.90;98.30;;;;;;5150859;23;20177;-84
2021/11/30 05:38:08;;;;;;;19.60;16.77;;;4.00;98.30;;;;;;5151128;23;20184;-84
2021/11/30 05:40:13;;;;;;;17.25;15.25;;;4.00;98.30;;;;;;5142887;23;20516;-85
2021/11/30 05:42:16;;;;;;;17.73;15.90;;;4.00;98.30;;;;;;5151305;23;20273;-84
2021/11/30 05:44:19;;;;;;;18.80;16.43;;;4.00;98.30;;;;;;5150904;23;20425;-85
2021/11/30 05:46:22;;;;;;;21.30;16.90;;;4.10;98.30;;;;;;5150986;23;20447;-83
2021/11/30 05:48:26;;;;;;;20.33;15.87;;;4.10;98.30;;;;;;5150906;23;20472;-84
2021/11/30 05:50:29;;;;;;;17.50;15.47;;;4.10;98.30;;;;;;5150926;23;20455;-84
2021/11/30 05:52:32;;;;;;;18.07;15.43;;;4.20;98.30;;;;;;5148350;23;20396;-84
2021/11/30 05:54:36;;;;;;;19.60;17.47;;;4.20;98.30;;;;;;5148692;23;20744;-84
2021/11/30 05:56:42;;;;;;;19.20;17.20;;;4.20;98.30;;;;;;5149476;23;20502;-84
2021/11/30 05:58:46;;;;;;;17.53;14.23;;;4.20;98.30;;;;;;5149120;23;20430;-84
2021/11/30 06:00:49;;;;;;;19.00;14.67;;;4.30;98.30;;;;;;5149473;23;20416;-83
2021/11/30 06:03:02;;;;;;;22.50;18.13;;;4.30;98.30;;;;;;5148299;23;20758;-85
2021/11/30 06:05:06;;;;;;;16.07;13.23;;;4.30;98.30;;;;;;5148963;23;20702;-84
2021/11/30 06:07:09;;;;;;;17.27;14.90;;;4.30;98.30;;;;;;5148919;23;20749;-84
2021/11/30 06:09:12;;;;;;;17.87;14.70;;;4.40;98.30;;;;;;5149840;23;20904;-84
2021/11/30 06:11:16;;;;;;;15.50;13.80;;;4.40;98.30;;;;;;5149717;23;20457;-84
2021/11/30 06:13:21;;;;;;;14.80;12.90;;;4.40;98.30;;;;;;5149878;23;20442;-85
2021/11/30 06:15:24;;;;;;;13.30;10.10;;;4.50;98.30;;;;;;5150168;23;20942;-84
2021/11/30 06:17:27;;;;;;;13.03;11.63;;;4.60;98.30;;;;;;5149739;23;20512;-85
2021/11/30 06:19:30;;;;;;;12.30;10.37;;;4.60;98.30;;;;;;5149363;23;20440;-84
2021/11/30 06:21:33;;;;;;;13.37;11.97;;;4.60;98.30;;;;;;5150006;23;20441;-84
2021/11/30 06:23:38;;;;;;;12.07;10.30;;;4.70;98.30;;;;;;5149220;23;20426;-84
2021/11/30 06:25:41;;;;;;;12.60;9.80;;;4.70;98.30;;;;;;5149350;23;20429;-84
2021/11/30 06:27:45;;;;;;;11.67;10.47;;;4.70;98.30;;;;;;5149687;23;20432;-85
2021/11/30 06:29:49;;;;;;;14.40;10.60;;;4.70;98.30;;;;;;5149835;23;20746;-84
2021/11/30 06:31:52;;;;;;;10.10;8.83;;;4.70;98.30;;;;;;5149725;23;20415;-84
2021/11/30 06:33:55;;;;;;;10.37;8.87;;;4.80;98.30;;;;;;5149206;23;20475;-84
2021/11/30 06:35:58;;;;;;;10.77;9.27;;;4.80;98.30;;;;;;5149767;23;20422;-84
2021/11/30 06:38:01;;;;;;;11.90;10.00;;;4.90;98.30;;;;;;5149994;23;20425;-84
2021/11/30 06:40:05;;;;;;;16.43;11.40;;;4.90;98.30;;;;;;5150236;23;20878;-84
2021/11/30 06:42:08;;;;;;;11.67;9.90;;;4.90;98.30;;;;;;5149556;23;20432;-84
2021/11/30 06:44:11;;;;;;;14.80;10.57;;;4.90;98.30;;;;;;5149506;23;20425;-85
2021/11/30 06:46:16;;;;;;;11.90;9.80;;;5.00;98.30;;;;;;5150030;23;20480;-84
2021/11/30 06:48:20;;;;;;;13.43;10.03;;;5.00;98.30;;;;;;5149619;23;20800;-84
2021/11/30 06:50:23;;;;;;;13.37;10.17;;;5.00;98.30;;;;;;5149452;23;20422;-84
2021/11/30 06:52:29;;;;;;;13.43;9.93;;;5.10;98.30;;;;;;5149890;23;20406;-85
2021/11/30 06:54:32;;;;;;;16.27;12.17;;;5.10;98.30;;;;;;5149567;23;20425;-84
2021/11/30 06:56:35;;;;;;;13.73;10.80;;;5.10;98.30;;;;;;5150902;23;20406;-85
2021/11/30 06:58:39;;;;;;;11.93;10.33;;;5.20;98.30;;;;;;5151196;23;20467;-84
2021/11/30 07:00:42;;;;;;;13.23;10.33;;;5.20;98.30;;;;;;5151310;23;20533;-84
2021/11/30 07:02:48;;;;;;;12.43;11.13;;;5.20;98.30;;;;;;5151386;23;20596;-85
2021/11/30 07:04:53;;;;;;;17.67;12.97;;;5.30;98.30;;;;;;5151644;23;20779;-84
2021/11/30 07:07:04;;;;;;;15.20;11.93;;;5.30;98.30;;;;;;5151476;23;20464;-84
2021/11/30 07:09:17;;;;;;;17.03;11.70;;;5.40;98.30;;;;;;5151597;23;20400;-84
2021/11/30 07:11:23;;;;;;;14.70;9.37;;;5.40;98.30;;;;;;5151564;23;20453;-85
2021/11/30 07:13:28;;;;;;;15.37;10.43;;;5.50;98.30;;;;;;5151306;23;20417;-84
2021/11/30 07:15:32;;;;;;;16.80;10.90;;;5.50;98.30;;;;;;5152428;23;20792;-84
2021/11/30 07:17:35;;;;;;;18.90;10.37;;;5.50;98.30;;;;;;5152183;23;20392;-84
2021/11/30 07:19:40;;;;;;;22.00;11.40;;;5.60;98.30;;;;;;5152058;23;20431;-85
2021/11/30 07:21:44;;;;;;;22.17;12.23;;;5.60;98.30;;;;;;5151911;23;20437;-85
2021/11/30 07:23:47;;;;;;;19.50;9.80;;;5.60;98.30;;;;;;5158075;23;20602;-85
2021/11/30 07:25:52;;;;;;;15.80;8.50;;;5.70;98.30;;;;;;5154388;23;20933;-85
2021/11/30 07:27:56;;;;;;;16.90;7.80;;;5.70;98.30;;;;;;5151881;23;20412;-84
2021/11/30 07:29:59;;;;;;;15.13;7.63;;;5.70;98.30;;;;;;5151075;23;20478;-85
2021/11/30 07:32:02;;;;;;;17.43;7.90;;;5.70;98.30;;;;;;5151789;23;20468;-86
2021/11/30 07:34:05;;;;;;;20.60;7.50;;;5.80;98.30;;;;;;5151557;23;20496;-85
2021/11/30 07:36:10;;;;;;;15.87;8.30;;;5.80;98.30;;;;;;5151243;23;20400;-85
2021/11/30 07:38:13;;;;;;;10.57;6.00;;;5.70;98.30;;;;;;5151005;23;20419;-85
2021/11/30 07:40:17;;;;;;;15.87;6.73;;;5.80;98.30;;;;;;5151359;23;20403;-84
2021/11/30 07:42:21;;;;;;;21.47;7.87;;;5.80;98.30;;;;;;5151374;23;20396;-85
2021/11/30 07:44:24;;;;;;;19.43;6.63;;;5.80;98.30;;;;;;5151335;23;20481;-85
2021/11/30 07:46:27;;;;;;;11.30;6.43;;;5.80;98.30;;;;;;5151996;23;20417;-85
2021/11/30 07:48:31;;;;;;;12.67;6.07;;;5.80;98.30;;;;;;5151123;23;20426;-85
2021/11/30 07:50:34;;;;;;;14.93;5.60;;;5.80;98.30;;;;;;5151677;23;20420;-84
2021/11/30 07:52:41;;;;;;;13.37;6.17;;;5.80;98.30;;;;;;5151562;23;20427;-85
2021/11/30 07:54:45;;;;;;;25.50;6.70;;;5.80;98.30;;;;;;5151142;23;20481;-85
2021/11/30 07:56:48;;;;;;;14.50;4.97;;;5.90;98.30;;;;;;5151301;23;20865;-85
2021/11/30 07:58:52;;;;;;;17.90;5.10;;;5.80;98.30;;;;;;5150991;23;21156;-84
2021/11/30 08:00:58;;;;;;;18.33;6.97;;;5.90;98.30;;;;;;5151421;23;20564;-85
2021/11/30 08:03:01;;;;;;;40.60;14.37;;;5.90;98.30;;;;;;5150551;23;21218;-85
2021/11/30 08:05:06;;;;;;;35.50;14.30;;;5.90;98.30;;;;;;5152780;23;20449;-85
2021/11/30 08:07:09;;;;;;;29.67;7.37;;;5.90;98.30;;;;;;5152675;23;20984;-85
2021/11/30 08:09:13;;;;;;;22.30;5.50;;;5.90;98.30;;;;;;5152524;23;20406;-85
2021/11/30 08:11:16;;;;;;;19.40;5.73;;;6.00;98.30;;;;;;5152507;23;20477;-84
2021/11/30 08:13:20;;;;;;;20.17;6.90;;;5.90;98.30;;;;;;5152441;23;20403;-85
2021/11/30 08:15:23;;;;;;;21.70;5.60;;;6.00;98.30;;;;;;5152720;23;20405;-85
2021/11/30 08:17:36;;;;;;;26.13;6.77;;;6.00;98.30;;;;;;5152816;23;20413;-85
2021/11/30 08:19:39;;;;;;;17.67;6.80;;;5.90;98.30;;;;;;5152235;23;21005;-85
2021/11/30 08:21:42;;;;;;;24.23;6.57;;;6.00;98.30;;;;;;5152638;23;20524;-85
2021/11/30 08:23:45;;;;;;;25.97;6.53;;;6.00;98.30;;;;;;5152471;23;20890;-85
2021/11/30 08:25:50;;;;;;;29.73;6.87;;;6.00;98.30;;;;;;5153619;23;20428;-85
2021/11/30 08:27:55;;;;;;;22.13;6.47;;;6.00;98.30;;;;;;5153629;23;20502;-85
2021/11/30 08:30:18;;;;;;;22.40;6.47;;;6.00;98.30;;;;;;5163738;23;20392;-85
2021/11/30 08:32:25;;;;;;;21.10;5.87;;;6.00;98.30;;;;;;5153648;23;20883;-85
2021/11/30 08:34:28;;;;;;;21.10;5.70;;;6.00;98.30;;;;;;5152550;23;20407;-85
2021/11/30 08:36:31;;;;;;;20.83;6.13;;;6.00;98.30;;;;;;5152506;23;21209;-84
2021/11/30 08:38:34;;;;;;;25.43;5.53;;;6.00;98.30;;;;;;5152387;23;20422;-85
2021/11/30 08:40:37;;;;;;;25.00;7.00;;;6.00;98.30;;;;;;5152244;23;20445;-85
2021/11/30 08:42:43;;;;;;;26.97;8.00;;;6.00;98.30;;;;;;5151608;23;20432;-85
2021/11/30 08:44:46;;;;;;;17.93;7.17;;;6.10;98.30;;;;;;5151978;23;20475;-85
2021/11/30 08:46:50;;;;;;;36.83;16.63;;;6.00;98.30;;;;;;5152810;23;20429;-85
2021/11/30 08:48:53;;;;;;;24.93;8.87;;;6.00;98.30;;;;;;5152692;23;20499;-85
2021/11/30 08:51:00;;;;;;;19.63;8.03;;;6.00;98.30;;;;;;5151961;23;20419;-85
2021/11/30 08:53:04;;;;;;;13.63;4.97;;;6.00;98.30;;;;;;5152353;23;20753;-85
2021/11/30 08:55:09;;;;;;;15.40;5.63;;;6.00;98.30;;;;;;5152431;23;20431;-85
2021/11/30 08:57:13;;;;;;;14.90;4.87;;;5.90;98.30;;;;;;5152422;23;20392;-85
2021/11/30 08:59:18;;;;;;;16.23;4.90;;;6.00;98.30;;;;;;5152959;23;20449;-85
2021/11/30 09:01:24;;;;;;;9.57;4.40;;;6.00;98.30;;;;;;5153151;23;20465;-85
2021/11/30 09:03:27;;;;;;;17.30;4.67;;;6.00;98.30;;;;;;5151564;23;20385;-85
2021/11/30 09:05:33;;;;;;;16.47;5.10;;;6.00;98.30;;;;;;5152007;23;20430;-85
2021/11/30 09:07:36;;;;;;;22.87;5.17;;;6.00;98.30;;;;;;5152033;23;20442;-85
2021/11/30 09:09:39;;;;;;;17.03;4.10;;;6.00;98.30;;;;;;5151939;23;20399;-85
2021/11/30 09:11:43;;;;;;;12.97;4.63;;;6.00;98.30;;;;;;5151733;23;20460;-85
2021/11/30 09:13:46;;;;;;;21.90;4.60;;;6.10;98.30;;;;;;5151423;23;20494;-85
2021/11/30 09:15:50;;;;;;;14.93;4.70;;;6.00;98.30;;;;;;5143661;23;20488;-85
2021/11/30 09:17:56;;;;;;;13.03;5.07;;;6.00;98.30;;;;;;5152509;23;20425;-85
2021/11/30 09:19:59;;;;;;;14.00;4.50;;;6.10;98.30;;;;;;5152208;23;20495;-85
2021/11/30 09:22:02;;;;;;;19.40;4.40;;;6.10;98.30;;;;;;5152161;23;20416;-85
2021/11/30 09:24:05;;;;;;;24.20;5.73;;;6.10;98.30;;;;;;5152172;23;20504;-85
2021/11/30 09:26:08;;;;;;;17.50;4.97;;;6.10;98.30;;;;;;5151735;23;20491;-85
2021/11/30 09:28:11;;;;;;;15.10;4.10;;;6.20;98.30;;;;;;5152170;23;20452;-85
2021/11/30 09:30:17;;;;;;;9.87;3.47;;;6.20;98.30;;;;;;5151194;23;20425;-85
2021/11/30 09:32:26;;;;;;;18.13;4.93;;;6.20;98.30;;;;;;5150157;23;20417;-86
2021/11/30 09:34:39;;;;;;;25.63;7.60;;;6.20;98.30;;;;;;5148456;23;20724;-85
2021/11/30 09:36:45;;;;;;;8.87;4.27;;;6.20;98.30;;;;;;5159643;23;20590;-85
2021/11/30 09:38:48;;;;;;;13.43;4.33;;;6.30;98.30;;;;;;5150896;23;20515;-85
2021/11/30 09:40:57;;;;;;;15.83;4.57;;;6.30;98.30;;;;;;5150834;23;20504;-85
2021/11/30 09:43:20;;;;;;;19.33;5.83;;;6.40;98.30;;;;;;5140211;23;20407;-85
2021/11/30 09:45:26;;;;;;;10.67;4.20;;;6.40;98.30;;;;;;5149962;23;20527;-85
2021/11/30 09:47:30;;;;;;;22.73;5.10;;;6.40;98.30;;;;;;5150086;23;20430;-85
2021/11/30 09:49:33;;;;;;;11.40;4.80;;;6.40;98.30;;;;;;5150144;23;20456;-85
2021/11/30 09:51:37;;;;;;;12.30;5.00;;;6.50;98.30;;;;;;5149865;23;20528;-85
2021/11/30 09:53:41;;;;;;;14.80;4.63;;;6.50;98.30;;;;;;5150965;23;20429;-85
2021/11/30 09:55:46;;;;;;;11.30;5.47;;;6.60;98.30;;;;;;5152508;23;20508;-85
2021/11/30 09:57:50;;;;;;;15.60;4.50;;;6.60;98.30;;;;;;5150272;23;20978;-84
2021/11/30 09:59:55;;;;;;;20.43;6.00;;;6.60;98.30;;;;;;5150920;23;20502;-84
2021/11/30 10:01:58;;;;;;;18.90;5.03;;;6.60;98.30;;;;;;5150523;23;20505;-85
2021/11/30 10:04:03;;;;;;;15.80;5.23;;;6.60;98.30;;;;;;5149762;23;20433;-85
2021/11/30 10:06:07;;;;;;;15.17;5.50;;;6.70;98.30;;;;;;5142855;23;20425;-85
2021/11/30 10:08:29;;;;;;;16.13;6.20;;;6.70;98.30;;;;;;5152298;23;20401;-85
2021/11/30 10:10:43;;;;;;;15.57;5.37;;;6.70;98.30;;;;;;5152087;23;21247;-85
2021/11/30 10:12:54;;;;;;;15.93;5.97;;;6.80;98.30;;;;;;5154194;23;20916;-85
2021/11/30 10:15:08;;;;;;;17.07;5.40;;;6.80;98.30;;;;;;5152472;23;20542;-85
2021/11/30 10:17:19;;;;;;;26.80;5.60;;;6.80;98.30;;;;;;5151972;23;20425;-85
2021/11/30 10:19:29;;;;;;;20.37;6.23;;;6.90;98.30;;;;;;5151564;23;20463;-85
2021/11/30 10:21:33;;;;;;;16.43;5.23;;;6.90;98.30;;;;;;5151737;23;20790;-85
2021/11/30 10:23:45;;;;;;;20.27;5.00;;;6.90;98.30;;;;;;5151345;23;20434;-85
2021/11/30 10:25:48;;;;;;;20.03;5.20;;;6.90;98.30;;;;;;5151371;23;20406;-85
2021/11/30 10:27:54;;;;;;;21.37;6.37;;;6.90;98.30;;;;;;5151142;23;20724;-85
2021/11/30 10:29:57;;;;;;;23.63;6.33;;;6.90;98.30;;;;;;5151462;23;20431;-85
2021/11/30 10:32:00;;;;;;;17.13;5.70;;;6.90;98.30;;;;;;5150043;23;20493;-85
2021/11/30 10:34:12;;;;;;;21.50;6.90;;;6.80;98.30;;;;;;5149548;23;20430;-85
2021/11/30 10:36:17;;;;;;;26.20;5.50;;;6.90;98.30;;;;;;5150274;23;20436;-85
2021/11/30 10:38:22;;;;;;;16.03;6.30;;;6.90;98.30;;;;;;5150877;23;20392;-85
2021/11/30 10:40:27;;;;;;;13.60;5.40;;;6.90;98.30;;;;;;5151955;23;20452;-85
2021/11/30 10:42:30;;;;;;;14.87;3.97;;;7.00;98.30;;;;;;5159707;23;20995;-85
2021/11/30 10:44:33;;;;;;;15.83;4.70;;;7.00;98.30;;;;;;5150019;23;20489;-85
2021/11/30 10:46:38;;;;;;;20.60;4.87;;;7.10;98.30;;;;;;5150247;23;20428;-86